Time;durP1;ratioP1;P1;durP2;ratioP2;P2;SDS_P1;SDS_P2;PMS_P1;PMS_P2;Temp;Humidity;BMP_temperature;BMP_pressure;BME280_temperature;BME280_humidity;BME280_pressure;Samples;Min_cycle;Max_cycle;Signal;HPM_P1;HPM_P2
2022/12/18 00:00:46;;;;;;;35.58;17.17;;;;;;;;;;5090964;28;20449;-44
2022/12/18 00:03:13;;;;;;;33.13;17.40;;;;;;;;;;5071924;28;20439;-46
2022/12/18 00:05:46;;;;;;;29.10;15.68;;;;;;;;;;5090922;28;20059;-44
2022/12/18 00:08:12;;;;;;;34.33;17.42;;;;;;;;;;5090246;28;20024;-45
2022/12/18 00:10:38;;;;;;;34.13;16.52;;;;;;;;;;5088781;28;20031;-43
2022/12/18 00:13:05;;;;;;;35.03;17.13;;;;;;;;;;5099072;28;20498;-43
2022/12/18 00:15:31;;;;;;;29.70;15.85;;;;;;;;;;5107419;28;20031;-44
2022/12/18 00:17:57;;;;;;;32.78;16.45;;;;;;;;;;5111134;28;20456;-44
2022/12/18 00:20:25;;;;;;;31.73;16.92;;;;;;;;;;5110867;28;20031;-44
2022/12/18 00:22:52;;;;;;;29.33;15.43;;;;;;;;;;5111062;28;20039;-44
2022/12/18 00:25:18;;;;;;;35.75;18.50;;;;;;;;;;5110672;28;20406;-44
2022/12/18 00:27:44;;;;;;;32.90;16.80;;;;;;;;;;5110948;28;20024;-43
2022/12/18 00:30:10;;;;;;;35.85;17.17;;;;;;;;;;5108656;27;20032;-44
2022/12/18 00:32:37;;;;;;;38.47;18.08;;;;;;;;;;5110953;28;20058;-46
2022/12/18 00:35:03;;;;;;;35.45;17.05;;;;;;;;;;5110719;28;20032;-44
2022/12/18 00:37:29;;;;;;;32.33;16.75;;;;;;;;;;5111096;28;20028;-45
2022/12/18 00:39:55;;;;;;;36.05;17.30;;;;;;;;;;5110832;28;20062;-44
2022/12/18 00:45:07;;;;;;;33.78;17.05;;;;;;;;;;5109976;28;20114;-43
2022/12/18 00:47:33;;;;;;;39.45;19.17;;;;;;;;;;5110808;28;20608;-45
2022/12/18 00:49:59;;;;;;;34.95;17.27;;;;;;;;;;5110554;28;20127;-44
2022/12/18 00:52:25;;;;;;;33.13;17.20;;;;;;;;;;5110474;28;20558;-44
2022/12/18 00:54:51;;;;;;;37.50;17.52;;;;;;;;;;5110491;28;20066;-44
2022/12/18 00:57:17;;;;;;;39.83;18.75;;;;;;;;;;5109491;28;20024;-43
2022/12/18 00:59:43;;;;;;;35.70;16.98;;;;;;;;;;5109544;28;20036;-44
2022/12/18 01:02:09;;;;;;;34.17;17.15;;;;;;;;;;5109642;28;20510;-44
2022/12/18 06:11:43;;;;;;;24.65;12.68;;;;;;;;;;5083033;28;20097;-45
2022/12/18 06:14:10;;;;;;;20.67;11.38;;;;;;;;;;5066640;28;20032;-44
2022/12/18 06:16:37;;;;;;;20.92;11.15;;;;;;;;;;5068790;28;20262;-44
2022/12/18 06:19:04;;;;;;;24.60;12.25;;;;;;;;;;5086280;28;20063;-44
2022/12/18 06:21:30;;;;;;;20.88;10.88;;;;;;;;;;5082732;28;20031;-44
2022/12/18 06:23:57;;;;;;;21.80;11.25;;;;;;;;;;5067077;28;20028;-45
2022/12/18 06:26:24;;;;;;;21.98;11.52;;;;;;;;;;5066516;28;20051;-45
2022/12/18 06:28:50;;;;;;;23.02;12.88;;;;;;;;;;5066704;28;20028;-44
2022/12/18 06:31:17;;;;;;;25.00;12.75;;;;;;;;;;5066057;28;20048;-44
2022/12/18 06:33:44;;;;;;;20.58;10.77;;;;;;;;;;5066554;28;20035;-44
2022/12/18 06:36:12;;;;;;;19.08;10.55;;;;;;;;;;5071081;28;20020;-44
2022/12/18 06:38:39;;;;;;;21.25;10.77;;;;;;;;;;5086665;28;20032;-45
2022/12/18 06:41:08;;;;;;;22.80;11.52;;;;;;;;;;5069293;28;20258;-43
2022/12/18 06:43:34;;;;;;;23.13;12.27;;;;;;;;;;5048172;28;20476;-44
2022/12/18 06:46:01;;;;;;;20.17;10.90;;;;;;;;;;5066295;28;20056;-44
2022/12/18 06:48:27;;;;;;;22.92;12.20;;;;;;;;;;5078719;28;20027;-44
2022/12/18 06:50:54;;;;;;;21.77;11.30;;;;;;;;;;5069797;28;20522;-43
2022/12/18 06:53:20;;;;;;;23.88;12.02;;;;;;;;;;5068745;28;20194;-44
2022/12/18 06:55:45;;;;;;;22.15;11.57;;;;;;;;;;5082172;28;20103;-44
2022/12/18 06:58:11;;;;;;;22.55;11.20;;;;;;;;;;5086512;28;20036;-45
2022/12/18 07:00:37;;;;;;;22.30;11.32;;;;;;;;;;5084857;28;20031;-44
2022/12/18 07:03:03;;;;;;;19.33;10.10;;;;;;;;;;5086488;28;20208;-44
2022/12/18 07:05:30;;;;;;;21.33;10.77;;;;;;;;;;5086972;28;20023;-44
2022/12/18 07:07:58;;;;;;;23.10;12.13;;;;;;;;;;5086873;28;20162;-45
2022/12/18 07:10:25;;;;;;;24.42;12.73;;;;;;;;;;5086378;28;20112;-44
2022/12/18 07:12:51;;;;;;;23.17;12.52;;;;;;;;;;5096552;28;20517;-44
2022/12/18 07:15:17;;;;;;;19.75;11.20;;;;;;;;;;5105890;28;20023;-46
2022/12/18 07:17:44;;;;;;;24.00;12.25;;;;;;;;;;5106663;28;20383;-47
2022/12/18 07:20:10;;;;;;;24.75;12.52;;;;;;;;;;5105402;28;20024;-46
2022/12/18 07:22:36;;;;;;;22.27;11.27;;;;;;;;;;5106870;28;20059;-44
2022/12/18 07:25:02;;;;;;;21.20;11.18;;;;;;;;;;5106310;28;20055;-45
2022/12/18 07:27:28;;;;;;;20.55;10.70;;;;;;;;;;5106533;28;20030;-44
2022/12/18 07:29:55;;;;;;;19.60;10.20;;;;;;;;;;5106008;28;20030;-44
2022/12/18 07:32:21;;;;;;;19.65;10.95;;;;;;;;;;5104684;28;20036;-45
2022/12/18 07:34:48;;;;;;;18.92;10.73;;;;;;;;;;5106790;28;20030;-45
2022/12/18 07:37:14;;;;;;;22.15;11.43;;;;;;;;;;5102540;28;20343;-45
2022/12/18 07:39:40;;;;;;;20.08;10.15;;;;;;;;;;5086184;28;20046;-44
2022/12/18 07:44:51;;;;;;;23.63;12.18;;;;;;;;;;5086323;28;20058;-45
2022/12/18 07:47:18;;;;;;;20.88;11.20;;;;;;;;;;5085667;28;20032;-45
2022/12/18 07:49:44;;;;;;;17.75;9.70;;;;;;;;;;5086353;28;20059;-44
2022/12/18 07:52:12;;;;;;;22.00;12.10;;;;;;;;;;5089868;28;20517;-43
2022/12/18 07:54:38;;;;;;;20.75;11.50;;;;;;;;;;5106895;28;20525;-43
2022/12/18 07:57:04;;;;;;;24.90;13.10;;;;;;;;;;5106623;28;20096;-44
2022/12/18 07:59:31;;;;;;;22.85;12.52;;;;;;;;;;5106880;28;20490;-44
2022/12/18 08:01:57;;;;;;;20.73;11.68;;;;;;;;;;5107009;28;20024;-45
2022/12/18 08:04:23;;;;;;;20.27;11.73;;;;;;;;;;5105794;28;20111;-43
2022/12/18 08:06:49;;;;;;;22.17;12.60;;;;;;;;;;5110473;28;20031;-44
2022/12/18 08:09:15;;;;;;;21.65;12.13;;;;;;;;;;5111838;28;20023;-44
2022/12/18 08:11:41;;;;;;;24.45;12.98;;;;;;;;;;5111329;28;20119;-44
2022/12/18 08:14:08;;;;;;;20.75;11.95;;;;;;;;;;5090874;28;20059;-44
2022/12/18 08:16:35;;;;;;;23.35;12.40;;;;;;;;;;5091384;28;20547;-44
2022/12/18 08:19:01;;;;;;;20.67;11.57;;;;;;;;;;5080780;28;20092;-43
2022/12/18 08:21:29;;;;;;;19.25;10.55;;;;;;;;;;5074219;28;20487;-44
2022/12/18 08:23:55;;;;;;;19.67;10.45;;;;;;;;;;5091208;28;20023;-46
2022/12/18 08:26:22;;;;;;;17.92;9.57;;;;;;;;;;5084655;28;20025;-44
2022/12/18 08:28:48;;;;;;;19.45;10.27;;;;;;;;;;5090978;28;20069;-46
2022/12/18 08:31:14;;;;;;;17.60;9.63;;;;;;;;;;5090981;28;20039;-44
2022/12/18 08:33:40;;;;;;;18.10;9.82;;;;;;;;;;5090626;28;20036;-44
2022/12/18 08:36:06;;;;;;;16.45;8.90;;;;;;;;;;5090724;28;20035;-45
2022/12/18 08:38:33;;;;;;;16.92;8.82;;;;;;;;;;5075347;28;20577;-44
2022/12/18 08:41:03;;;;;;;14.57;8.20;;;;;;;;;;5089716;28;20131;-46
2022/12/18 08:46:15;;;;;;;13.02;7.70;;;;;;;;;;5090910;28;20496;-44
2022/12/18 08:48:41;;;;;;;12.55;7.57;;;;;;;;;;5090727;28;20111;-43
2022/12/18 08:51:09;;;;;;;13.35;7.57;;;;;;;;;;5072375;28;20031;-44
2022/12/18 08:53:35;;;;;;;13.23;7.38;;;;;;;;;;5078958;28;20020;-44
2022/12/18 08:56:01;;;;;;;11.32;6.55;;;;;;;;;;5090766;28;20393;-46
2022/12/18 08:58:27;;;;;;;10.68;6.70;;;;;;;;;;5090708;28;20133;-45
2022/12/18 09:00:53;;;;;;;10.23;5.35;;;;;;;;;;5071108;28;20119;-46
2022/12/18 09:03:22;;;;;;;10.07;5.75;;;;;;;;;;5072916;28;20406;-44
2022/12/18 09:05:48;;;;;;;10.90;5.45;;;;;;;;;;5090418;28;20028;-46
2022/12/18 09:08:14;;;;;;;8.43;5.20;;;;;;;;;;5089103;28;20024;-45
2022/12/18 09:10:44;;;;;;;8.15;4.97;;;;;;;;;;5082347;28;20024;-45
2022/12/18 09:13:11;;;;;;;9.02;5.32;;;;;;;;;;5081605;28;20036;-44
2022/12/18 09:15:47;;;;;;;9.40;5.18;;;;;;;;;;5097663;28;20108;-44
2022/12/18 09:18:15;;;;;;;9.05;5.07;;;;;;;;;;5092320;28;20052;-44
2022/12/18 09:20:41;;;;;;;9.05;5.43;;;;;;;;;;5099107;28;20399;-43
2022/12/18 09:23:07;;;;;;;8.23;5.22;;;;;;;;;;5109116;28;20043;-44
2022/12/18 09:25:35;;;;;;;7.90;4.68;;;;;;;;;;5097866;28;20028;-44
2022/12/18 09:28:02;;;;;;;8.48;5.00;;;;;;;;;;5100830;28;20508;-43
2022/12/18 09:30:28;;;;;;;7.38;4.60;;;;;;;;;;5092169;28;20028;-44
2022/12/18 09:32:54;;;;;;;6.68;4.05;;;;;;;;;;5092208;28;20054;-44
2022/12/18 09:35:20;;;;;;;6.80;4.13;;;;;;;;;;5105273;28;20073;-44
2022/12/18 09:37:46;;;;;;;5.18;3.42;;;;;;;;;;5108191;28;20035;-45
2022/12/18 09:40:16;;;;;;;5.07;3.53;;;;;;;;;;5090145;28;20490;-45
2022/12/18 09:42:46;;;;;;;6.10;3.95;;;;;;;;;;5099622;28;20082;-44
2022/12/18 09:45:14;;;;;;;6.35;3.80;;;;;;;;;;5109795;28;20066;-44
2022/12/18 09:47:41;;;;;;;6.03;3.88;;;;;;;;;;5109255;28;20054;-44
2022/12/18 09:50:22;;;;;;;5.47;3.45;;;;;;;;;;5108029;28;20566;-44
2022/12/18 09:52:50;;;;;;;4.85;3.22;;;;;;;;;;5099687;28;20517;-43
2022/12/18 09:55:22;;;;;;;4.75;2.97;;;;;;;;;;5108374;28;20062;-43
2022/12/18 09:57:59;;;;;;;5.15;3.38;;;;;;;;;;5109472;28;20034;-43
2022/12/18 10:00:25;;;;;;;4.15;2.97;;;;;;;;;;5108229;28;20042;-43
2022/12/18 10:02:53;;;;;;;4.65;2.90;;;;;;;;;;5105106;28;20035;-43
2022/12/18 10:05:38;;;;;;;4.43;3.15;;;;;;;;;;5090162;28;20024;-43
2022/12/18 10:08:10;;;;;;;4.07;2.72;;;;;;;;;;5096565;28;20554;-43
2022/12/18 10:10:56;;;;;;;4.50;3.10;;;;;;;;;;5110592;28;20020;-43
2022/12/18 10:13:28;;;;;;;4.57;3.00;;;;;;;;;;5094563;28;20097;-42
2022/12/18 10:15:59;;;;;;;5.75;3.45;;;;;;;;;;5072203;28;20043;-43
2022/12/18 10:18:37;;;;;;;6.07;3.53;;;;;;;;;;5084490;28;20028;-43
2022/12/18 10:21:11;;;;;;;5.03;3.15;;;;;;;;;;5069702;28;20132;-43
2022/12/18 10:23:38;;;;;;;4.80;3.20;;;;;;;;;;5082839;28;20060;-42
2022/12/18 10:26:06;;;;;;;4.53;2.78;;;;;;;;;;5089717;28;20135;-43
2022/12/18 10:28:34;;;;;;;4.10;2.88;;;;;;;;;;5081941;28;20032;-42
2022/12/18 10:31:00;;;;;;;3.55;2.50;;;;;;;;;;5090268;28;20020;-41
2022/12/18 10:33:29;;;;;;;4.15;2.28;;;;;;;;;;5084159;28;20379;-41
2022/12/18 10:35:55;;;;;;;4.25;2.65;;;;;;;;;;5081721;28;20036;-42
2022/12/18 10:38:28;;;;;;;3.05;2.15;;;;;;;;;;5082025;28;20046;-42
2022/12/18 10:41:02;;;;;;;3.37;2.27;;;;;;;;;;5088117;28;20089;-42
2022/12/18 10:43:30;;;;;;;2.85;1.98;;;;;;;;;;5089629;28;20435;-41
2022/12/18 10:46:05;;;;;;;3.28;2.10;;;;;;;;;;5087621;28;20035;-41
2022/12/18 10:48:32;;;;;;;4.28;2.53;;;;;;;;;;5083108;28;20024;-42
2022/12/18 10:50:58;;;;;;;2.97;1.90;;;;;;;;;;5082111;28;20495;-42
2022/12/18 10:53:25;;;;;;;2.47;1.90;;;;;;;;;;5088824;28;20644;-42
2022/12/18 10:55:53;;;;;;;2.58;2.00;;;;;;;;;;5084197;28;20104;-42
2022/12/18 10:58:19;;;;;;;3.63;2.35;;;;;;;;;;5086416;28;20398;-42
2022/12/18 11:00:46;;;;;;;2.67;1.63;;;;;;;;;;5085019;28;20036;-41
2022/12/18 11:03:41;;;;;;;2.75;1.98;;;;;;;;;;5082610;28;20370;-42
2022/12/18 11:06:09;;;;;;;2.75;1.92;;;;;;;;;;5066925;28;20039;-41
2022/12/18 11:08:35;;;;;;;3.03;1.95;;;;;;;;;;5083748;28;20487;-42
2022/12/18 11:11:01;;;;;;;3.17;2.03;;;;;;;;;;5081873;28;20106;-42
2022/12/18 11:13:29;;;;;;;2.83;1.83;;;;;;;;;;5088877;28;20028;-42
2022/12/18 11:15:55;;;;;;;2.47;1.92;;;;;;;;;;5093179;28;20036;-42
2022/12/18 11:18:27;;;;;;;3.10;1.73;;;;;;;;;;5095936;28;20028;-42
2022/12/18 11:20:55;;;;;;;2.70;2.00;;;;;;;;;;5092105;28;20162;-42
2022/12/18 11:23:25;;;;;;;3.50;2.30;;;;;;;;;;5093790;28;20120;-42
2022/12/18 11:26:02;;;;;;;5.40;3.25;;;;;;;;;;5097959;28;20032;-42
2022/12/18 11:28:42;;;;;;;4.93;3.45;;;;;;;;;;5082547;28;20086;-42
2022/12/18 11:31:19;;;;;;;5.80;3.53;;;;;;;;;;5088584;28;20054;-42
2022/12/18 11:34:05;;;;;;;5.68;3.50;;;;;;;;;;5087351;28;20036;-42
2022/12/18 11:36:34;;;;;;;5.60;3.20;;;;;;;;;;5086593;28;20106;-41
2022/12/18 11:39:02;;;;;;;4.35;2.90;;;;;;;;;;5099851;28;20024;-42
2022/12/18 11:42:14;;;;;;;7.53;2.90;;;;;;;;;;5101290;28;20051;-42
2022/12/18 11:44:44;;;;;;;3.47;2.10;;;;;;;;;;5091388;28;20027;-42
2022/12/18 11:47:16;;;;;;;2.88;2.30;;;;;;;;;;5057471;28;20114;-41
2022/12/18 11:49:42;;;;;;;3.35;2.30;;;;;;;;;;5099394;28;20027;-42
2022/12/18 11:52:14;;;;;;;3.38;2.10;;;;;;;;;;5099779;28;20073;-42
2022/12/18 11:54:40;;;;;;;3.05;1.80;;;;;;;;;;5100092;28;20024;-42
2022/12/18 11:57:21;;;;;;;4.50;2.40;;;;;;;;;;5100823;28;20039;-42
2022/12/18 11:59:53;;;;;;;2.78;1.88;;;;;;;;;;5098792;28;20062;-42
2022/12/18 12:02:38;;;;;;;3.25;1.83;;;;;;;;;;5098968;28;20076;-42
2022/12/18 12:05:20;;;;;;;3.88;2.55;;;;;;;;;;5072747;28;20024;-42
2022/12/18 12:07:46;;;;;;;3.38;2.50;;;;;;;;;;5095625;28;20035;-43
2022/12/18 12:10:30;;;;;;;3.67;2.40;;;;;;;;;;5099625;28;20067;-43
2022/12/18 12:13:06;;;;;;;4.35;2.85;;;;;;;;;;5081571;28;20050;-42
2022/12/18 12:15:49;;;;;;;3.95;2.63;;;;;;;;;;5110091;28;20023;-42
2022/12/18 12:18:33;;;;;;;6.72;2.90;;;;;;;;;;5110167;28;20098;-43
2022/12/18 12:21:19;;;;;;;7.25;2.78;;;;;;;;;;5107861;28;20031;-42
2022/12/18 12:24:11;;;;;;;4.38;2.22;;;;;;;;;;5105621;28;20035;-43
2022/12/18 12:26:52;;;;;;;6.20;2.25;;;;;;;;;;5077802;28;20039;-42
2022/12/18 12:29:31;;;;;;;3.05;1.92;;;;;;;;;;5109174;28;20027;-42
2022/12/18 12:32:16;;;;;;;3.08;2.13;;;;;;;;;;5110269;28;20486;-42
2022/12/18 12:35:00;;;;;;;3.15;1.67;;;;;;;;;;5112720;27;20027;-42
2022/12/18 12:37:34;;;;;;;4.35;1.90;;;;;;;;;;5106060;28;20051;-42
2022/12/18 12:40:02;;;;;;;2.85;1.80;;;;;;;;;;5111535;28;20038;-42
2022/12/18 12:45:47;;;;;;;5.32;1.85;;;;;;;;;;5110020;28;20027;-42
2022/12/18 12:48:19;;;;;;;3.28;1.80;;;;;;;;;;5092670;28;20440;-43
2022/12/18 12:50:46;;;;;;;3.90;1.65;;;;;;;;;;5108525;28;20377;-43
2022/12/18 12:53:16;;;;;;;3.78;2.00;;;;;;;;;;5111442;27;20027;-43
2022/12/18 12:55:43;;;;;;;3.33;1.83;;;;;;;;;;5110661;28;20032;-42
2022/12/18 12:58:15;;;;;;;2.97;1.77;;;;;;;;;;5107527;27;20027;-43
2022/12/18 13:00:53;;;;;;;8.43;1.90;;;;;;;;;;5108746;28;20462;-43
2022/12/18 13:03:29;;;;;;;4.05;1.92;;;;;;;;;;5109357;28;20032;-43
2022/12/18 13:06:00;;;;;;;5.22;1.83;;;;;;;;;;5109424;28;20023;-43
2022/12/18 13:08:31;;;;;;;3.42;1.83;;;;;;;;;;5110911;28;20035;-43
2022/12/18 13:13:50;;;;;;;3.45;1.70;;;;;;;;;;5111580;27;20058;-43
2022/12/18 13:16:19;;;;;;;2.97;1.65;;;;;;;;;;5112189;28;20051;-43
2022/12/18 13:18:59;;;;;;;4.78;1.90;;;;;;;;;;5111479;28;20074;-43
2022/12/18 13:21:28;;;;;;;4.53;1.92;;;;;;;;;;5099943;28;20036;-42
2022/12/18 13:23:55;;;;;;;4.50;2.28;;;;;;;;;;5111625;28;20039;-43
2022/12/18 13:26:24;;;;;;;3.35;1.80;;;;;;;;;;5105777;28;20302;-43
2022/12/18 13:28:52;;;;;;;2.70;1.77;;;;;;;;;;5091878;28;20047;-43
2022/12/18 13:31:30;;;;;;;4.03;1.98;;;;;;;;;;5095253;28;20020;-43
2022/12/18 13:34:17;;;;;;;3.20;1.67;;;;;;;;;;5102356;27;20050;-44
2022/12/18 13:36:43;;;;;;;4.43;1.60;;;;;;;;;;5089049;27;20040;-43
2022/12/18 13:39:11;;;;;;;5.57;1.65;;;;;;;;;;5093681;28;20028;-43
2022/12/18 13:41:37;;;;;;;1.88;1.33;;;;;;;;;;5099057;28;20106;-43
2022/12/18 13:44:13;;;;;;;1.77;1.10;;;;;;;;;;5111654;28;20034;-43
2022/12/18 13:46:44;;;;;;;2.13;1.40;;;;;;;;;;5109952;28;20107;-43
2022/12/18 13:49:12;;;;;;;2.10;1.27;;;;;;;;;;5102719;28;20028;-43
2022/12/18 13:51:42;;;;;;;2.65;1.42;;;;;;;;;;5107308;28;20024;-43
2022/12/18 13:54:20;;;;;;;2.30;1.50;;;;;;;;;;5107597;27;20023;-42
2022/12/18 13:56:47;;;;;;;1.67;1.30;;;;;;;;;;5092138;28;20036;-43
2022/12/18 13:59:16;;;;;;;3.97;1.52;;;;;;;;;;5120757;27;20095;-43
2022/12/18 14:01:43;;;;;;;2.08;1.45;;;;;;;;;;5108815;28;20039;-44
2022/12/18 14:04:10;;;;;;;2.72;1.35;;;;;;;;;;5117399;27;20482;-44
2022/12/18 14:06:36;;;;;;;3.45;1.50;;;;;;;;;;5091508;28;20055;-43
2022/12/18 14:09:03;;;;;;;2.58;1.45;;;;;;;;;;5106774;28;20023;-44
2022/12/18 14:11:30;;;;;;;3.97;1.85;;;;;;;;;;5108784;28;20031;-45
2022/12/18 14:13:56;;;;;;;3.78;1.30;;;;;;;;;;5111239;27;20518;-44
2022/12/18 14:16:23;;;;;;;1.50;1.20;;;;;;;;;;5108035;28;20032;-43
2022/12/18 14:18:55;;;;;;;2.72;1.30;;;;;;;;;;5110911;28;20031;-44
2022/12/18 14:21:32;;;;;;;4.50;1.60;;;;;;;;;;5111092;28;20451;-43
2022/12/18 14:24:07;;;;;;;2.05;1.30;;;;;;;;;;5110770;28;20032;-43
2022/12/18 14:26:33;;;;;;;2.63;1.33;;;;;;;;;;5108406;28;20028;-43
2022/12/18 14:29:01;;;;;;;3.80;1.42;;;;;;;;;;5109872;27;20395;-44
2022/12/18 14:31:29;;;;;;;1.10;0.90;;;;;;;;;;5105221;27;20032;-43
2022/12/18 14:33:56;;;;;;;2.72;1.48;;;;;;;;;;5098886;28;20057;-44
2022/12/18 14:36:23;;;;;;;1.80;1.25;;;;;;;;;;5103611;28;20024;-43
2022/12/18 14:38:51;;;;;;;2.70;1.50;;;;;;;;;;5098766;27;20078;-44
2022/12/18 14:41:18;;;;;;;1.95;1.40;;;;;;;;;;5118243;27;20118;-44
2022/12/18 14:43:45;;;;;;;3.10;1.65;;;;;;;;;;5106188;27;20027;-43
2022/12/18 14:46:26;;;;;;;2.28;1.42;;;;;;;;;;5115156;27;20399;-43
2022/12/18 14:48:52;;;;;;;3.15;1.15;;;;;;;;;;5129723;27;20561;-49
2022/12/18 14:51:21;;;;;;;2.88;1.23;;;;;;;;;;5122591;27;20024;-46
2022/12/18 14:54:00;;;;;;;3.78;1.63;;;;;;;;;;5099725;28;20122;-47
2022/12/18 14:56:28;;;;;;;3.70;1.30;;;;;;;;;;5107330;28;20059;-43
2022/12/18 14:58:58;;;;;;;2.15;1.30;;;;;;;;;;5094977;28;20520;-44
2022/12/18 15:01:29;;;;;;;1.77;1.17;;;;;;;;;;5097328;28;20066;-43
2022/12/18 15:03:56;;;;;;;2.10;1.50;;;;;;;;;;5102143;28;20792;-42
2022/12/18 15:06:33;;;;;;;1.70;1.33;;;;;;;;;;5094916;28;20479;-43
2022/12/18 15:09:00;;;;;;;3.67;1.35;;;;;;;;;;5073914;28;20046;-43
2022/12/18 15:11:34;;;;;;;2.78;1.50;;;;;;;;;;5087898;28;20099;-43
2022/12/18 15:14:00;;;;;;;2.97;1.40;;;;;;;;;;5087229;28;20043;-43
2022/12/18 15:16:26;;;;;;;2.47;1.20;;;;;;;;;;5087315;28;20028;-44
2022/12/18 15:18:53;;;;;;;1.65;1.10;;;;;;;;;;5098936;28;20035;-43
2022/12/18 15:21:20;;;;;;;2.17;1.30;;;;;;;;;;5108484;28;20016;-44
2022/12/18 15:23:52;;;;;;;1.42;1.20;;;;;;;;;;5108504;28;20127;-44
2022/12/18 15:26:20;;;;;;;2.25;1.33;;;;;;;;;;5108644;28;20023;-43
2022/12/18 15:28:50;;;;;;;2.85;1.40;;;;;;;;;;5106113;28;20027;-45
2022/12/18 15:31:17;;;;;;;3.10;1.60;;;;;;;;;;5105967;28;20027;-43
2022/12/18 15:33:45;;;;;;;1.83;1.33;;;;;;;;;;5095750;28;20032;-43
2022/12/18 15:36:15;;;;;;;2.75;1.23;;;;;;;;;;5105917;28;20335;-44
2022/12/18 15:38:41;;;;;;;2.80;1.55;;;;;;;;;;5088941;28;20496;-44
2022/12/18 15:41:18;;;;;;;4.20;2.53;;;;;;;;;;5089269;28;20065;-43
2022/12/18 15:43:45;;;;;;;3.58;2.53;;;;;;;;;;5103298;28;20035;-43
2022/12/18 15:46:18;;;;;;;4.38;2.78;;;;;;;;;;5108121;28;20019;-43
2022/12/18 15:48:51;;;;;;;3.60;2.35;;;;;;;;;;5076372;28;20053;-43
2022/12/18 15:51:19;;;;;;;2.85;2.10;;;;;;;;;;5094642;28;20028;-43
2022/12/18 15:53:46;;;;;;;3.85;2.60;;;;;;;;;;5099175;28;20434;-46
2022/12/18 15:58:57;;;;;;;3.85;2.60;;;;;;;;;;5107646;28;20030;-48
2022/12/18 16:01:24;;;;;;;4.15;2.70;;;;;;;;;;5088574;28;20120;-46
2022/12/18 16:03:50;;;;;;;3.95;2.65;;;;;;;;;;5087927;28;20039;-47
2022/12/18 16:06:16;;;;;;;3.47;2.35;;;;;;;;;;5097452;28;20490;-47
2022/12/18 16:08:42;;;;;;;4.32;2.45;;;;;;;;;;5107881;28;20043;-49
2022/12/18 16:11:17;;;;;;;4.50;2.35;;;;;;;;;;5108396;28;20090;-46
2022/12/18 16:13:43;;;;;;;4.07;2.83;;;;;;;;;;5089877;28;20043;-47
2022/12/18 16:16:09;;;;;;;2.97;2.30;;;;;;;;;;5108010;28;20046;-47
2022/12/18 16:18:35;;;;;;;3.17;2.50;;;;;;;;;;5103954;28;20491;-49
2022/12/18 16:21:01;;;;;;;2.47;1.95;;;;;;;;;;5098775;28;20063;-50
2022/12/18 16:23:27;;;;;;;2.90;1.88;;;;;;;;;;5108287;28;20402;-47
2022/12/18 16:25:53;;;;;;;3.63;1.90;;;;;;;;;;5108211;28;20024;-47
2022/12/18 16:28:19;;;;;;;3.40;1.95;;;;;;;;;;5110674;28;20524;-46
2022/12/18 16:30:45;;;;;;;2.92;1.75;;;;;;;;;;5111640;28;20023;-49
2022/12/18 16:33:12;;;;;;;3.03;2.13;;;;;;;;;;5103243;28;20031;-45
2022/12/18 16:35:38;;;;;;;2.33;1.70;;;;;;;;;;5100040;28;20038;-46
2022/12/18 16:38:04;;;;;;;2.70;1.90;;;;;;;;;;5111166;28;20062;-49
2022/12/18 16:40:32;;;;;;;2.22;1.70;;;;;;;;;;5110723;28;20030;-46
2022/12/18 16:42:58;;;;;;;3.33;2.10;;;;;;;;;;5111499;28;20443;-47
2022/12/18 16:45:32;;;;;;;2.97;1.92;;;;;;;;;;5111725;28;20024;-45
2022/12/18 16:47:58;;;;;;;2.60;1.90;;;;;;;;;;5092364;28;20064;-49
2022/12/18 16:50:24;;;;;;;3.30;2.08;;;;;;;;;;5104608;28;20343;-46
2022/12/18 16:52:50;;;;;;;4.18;2.05;;;;;;;;;;5111462;28;20478;-49
2022/12/18 16:55:16;;;;;;;3.83;2.10;;;;;;;;;;5110984;28;20028;-48
2022/12/18 16:57:42;;;;;;;3.75;2.13;;;;;;;;;;5110374;28;20039;-49
2022/12/18 17:00:09;;;;;;;3.75;2.33;;;;;;;;;;5109413;28;20458;-45
2022/12/18 17:02:35;;;;;;;2.25;1.60;;;;;;;;;;5092174;28;20024;-46
2022/12/18 17:05:01;;;;;;;2.70;2.08;;;;;;;;;;5107325;28;20497;-46
2022/12/18 17:07:27;;;;;;;3.67;2.20;;;;;;;;;;5109888;28;20666;-49
2022/12/18 17:09:54;;;;;;;4.10;2.58;;;;;;;;;;5108485;28;20027;-45
2022/12/18 17:12:20;;;;;;;4.93;2.83;;;;;;;;;;5110901;28;20528;-46
2022/12/18 17:14:46;;;;;;;5.50;2.90;;;;;;;;;;5082472;28;20036;-49
2022/12/18 17:17:12;;;;;;;4.18;2.60;;;;;;;;;;5090428;28;20020;-49
2022/12/18 17:19:38;;;;;;;4.30;2.67;;;;;;;;;;5090579;28;20093;-45
2022/12/18 17:22:04;;;;;;;4.55;3.10;;;;;;;;;;5090089;28;20374;-49
2022/12/18 17:24:30;;;;;;;5.45;3.03;;;;;;;;;;5090017;28;20027;-46
2022/12/18 17:26:56;;;;;;;6.63;3.67;;;;;;;;;;5090036;28;20032;-46
2022/12/18 17:29:22;;;;;;;8.63;4.85;;;;;;;;;;5090246;28;20475;-45
2022/12/18 17:31:48;;;;;;;5.95;3.80;;;;;;;;;;5071882;28;20537;-44
2022/12/18 17:34:15;;;;;;;6.80;4.30;;;;;;;;;;5075977;28;20056;-47
2022/12/18 17:36:41;;;;;;;8.68;4.78;;;;;;;;;;5085656;28;20403;-48
2022/12/18 17:39:07;;;;;;;7.57;4.68;;;;;;;;;;5089701;28;20024;-48
2022/12/18 17:41:34;;;;;;;7.68;4.22;;;;;;;;;;5099371;28;20032;-45
2022/12/18 17:44:01;;;;;;;6.60;4.00;;;;;;;;;;5089914;28;20046;-48
2022/12/18 17:46:29;;;;;;;6.53;4.15;;;;;;;;;;5085667;28;20023;-48
2022/12/18 17:48:56;;;;;;;5.05;3.20;;;;;;;;;;5069290;28;20038;-45
2022/12/18 17:51:22;;;;;;;6.25;3.78;;;;;;;;;;5099676;28;20051;-49
2022/12/18 17:53:48;;;;;;;5.47;3.60;;;;;;;;;;5101462;28;20470;-47
2022/12/18 17:56:16;;;;;;;6.57;4.05;;;;;;;;;;5109923;28;20478;-46
2022/12/18 17:58:42;;;;;;;7.72;4.10;;;;;;;;;;5095890;28;20032;-48
2022/12/18 18:01:10;;;;;;;6.65;4.13;;;;;;;;;;5089399;28;20024;-47
2022/12/18 18:03:36;;;;;;;7.10;4.03;;;;;;;;;;5089602;28;20114;-45
2022/12/18 18:06:03;;;;;;;6.57;3.67;;;;;;;;;;5089390;28;20069;-45
2022/12/18 18:08:30;;;;;;;6.35;3.60;;;;;;;;;;5089838;28;20106;-46
2022/12/18 18:13:59;;;;;;;5.90;3.63;;;;;;;;;;5089827;28;20112;-46
2022/12/18 18:14:01;;;;;;;5.55;3.50;;;;;;;;;;5084726;28;20517;-45
2022/12/18 18:16:53;;;;;;;5.65;3.47;;;;;;;;;;5087917;28;20055;-48
2022/12/18 18:19:21;;;;;;;6.75;3.90;;;;;;;;;;5083362;28;20048;-45
2022/12/18 18:21:48;;;;;;;6.35;4.00;;;;;;;;;;5088198;28;20109;-46
2022/12/18 18:24:15;;;;;;;7.13;4.18;;;;;;;;;;5087535;28;20031;-48
2022/12/18 18:26:42;;;;;;;6.63;4.07;;;;;;;;;;5081888;28;20028;-45
2022/12/18 18:29:08;;;;;;;6.00;3.50;;;;;;;;;;5088640;28;20020;-48
2022/12/18 18:31:35;;;;;;;5.90;3.60;;;;;;;;;;5087668;28;20027;-49
2022/12/18 18:34:01;;;;;;;5.75;3.53;;;;;;;;;;5070064;28;20032;-45
2022/12/18 18:36:28;;;;;;;4.45;3.00;;;;;;;;;;5082215;28;20067;-47
2022/12/18 18:38:54;;;;;;;3.78;2.33;;;;;;;;;;5087969;28;20031;-46
2022/12/18 18:41:23;;;;;;;4.90;2.45;;;;;;;;;;5087442;28;20416;-46
2022/12/18 18:43:53;;;;;;;2.80;1.80;;;;;;;;;;5085889;28;20029;-46
2022/12/18 18:46:20;;;;;;;2.85;1.80;;;;;;;;;;5088331;28;20032;-45
2022/12/18 18:48:46;;;;;;;2.92;1.80;;;;;;;;;;5087600;28;20495;-49
2022/12/18 18:51:13;;;;;;;3.65;2.17;;;;;;;;;;5087573;28;20046;-46
2022/12/18 18:53:40;;;;;;;3.65;2.28;;;;;;;;;;5070648;28;20040;-46
2022/12/18 18:56:07;;;;;;;4.30;2.03;;;;;;;;;;5086333;28;20171;-45
2022/12/18 18:58:33;;;;;;;4.55;2.40;;;;;;;;;;5082872;28;20028;-46
2022/12/18 19:01:04;;;;;;;3.45;2.33;;;;;;;;;;5086279;28;20032;-47
2022/12/18 19:03:30;;;;;;;5.97;3.17;;;;;;;;;;5078021;28;20060;-47
2022/12/18 19:05:58;;;;;;;6.22;3.50;;;;;;;;;;5086965;28;20024;-45
2022/12/18 19:08:26;;;;;;;7.07;3.92;;;;;;;;;;5087194;28;20513;-47
2022/12/18 19:10:52;;;;;;;10.07;4.28;;;;;;;;;;5086865;28;20576;-46
2022/12/18 19:13:23;;;;;;;8.55;4.45;;;;;;;;;;5086395;28;20036;-48
2022/12/18 19:16:03;;;;;;;8.25;4.40;;;;;;;;;;5083076;28;20032;-46
2022/12/18 19:18:29;;;;;;;8.85;4.78;;;;;;;;;;5065720;28;20028;-44
2022/12/18 19:20:56;;;;;;;6.13;3.88;;;;;;;;;;5086237;28;20028;-45
2022/12/18 19:23:22;;;;;;;6.05;3.80;;;;;;;;;;5063544;28;20020;-46
2022/12/18 19:25:48;;;;;;;6.68;4.35;;;;;;;;;;5086301;28;20028;-49
2022/12/18 19:28:14;;;;;;;6.82;4.25;;;;;;;;;;5085637;28;20028;-45
2022/12/18 19:30:41;;;;;;;6.18;3.67;;;;;;;;;;5086145;28;20032;-47
2022/12/18 19:33:07;;;;;;;5.13;2.90;;;;;;;;;;5086853;28;20498;-46
2022/12/18 19:35:33;;;;;;;5.00;3.22;;;;;;;;;;5081798;28;20035;-47
2022/12/18 19:37:59;;;;;;;3.70;2.80;;;;;;;;;;5085737;28;20034;-45
2022/12/18 19:40:25;;;;;;;3.83;2.53;;;;;;;;;;5086646;28;20051;-46
2022/12/18 19:42:51;;;;;;;8.32;2.63;;;;;;;;;;5068627;28;20032;-44
2022/12/18 19:45:18;;;;;;;4.82;2.00;;;;;;;;;;5086542;28;20103;-46
2022/12/18 19:47:44;;;;;;;2.95;2.10;;;;;;;;;;5083006;28;20115;-44
2022/12/18 19:50:10;;;;;;;2.67;1.67;;;;;;;;;;5082723;28;20031;-47
2022/12/18 19:52:36;;;;;;;2.67;1.70;;;;;;;;;;5086764;28;20465;-48
2022/12/18 19:55:03;;;;;;;2.83;1.85;;;;;;;;;;5085173;28;20028;-45
2022/12/18 19:57:29;;;;;;;3.08;2.00;;;;;;;;;;5086129;28;20055;-48
2022/12/18 19:59:55;;;;;;;2.63;1.88;;;;;;;;;;5083900;28;20472;-45
2022/12/18 20:02:21;;;;;;;3.17;2.10;;;;;;;;;;5089856;28;20097;-47
2022/12/18 20:04:47;;;;;;;4.35;2.30;;;;;;;;;;5090614;28;20513;-45
2022/12/18 20:07:14;;;;;;;3.45;1.80;;;;;;;;;;5090009;28;20507;-45
2022/12/18 20:09:40;;;;;;;3.63;1.67;;;;;;;;;;5089589;28;20024;-44